createdAt,value
2022-09-25T00:01:10.337Z,15.51
2022-09-25T00:06:15.232Z,15.47
2022-09-25T00:11:27.422Z,15.52
2022-09-25T00:16:31.417Z,15.53
2022-09-25T00:21:34.272Z,15.48
2022-09-25T00:26:39.049Z,15.34
2022-09-25T00:31:40.353Z,15.36
2022-09-25T00:36:41.621Z,15.28
2022-09-25T00:41:43.033Z,15.25
2022-09-25T00:46:44.479Z,15.16
2022-09-25T00:51:57.946Z,15.19
2022-09-25T00:57:03.981Z,15.04
2022-09-25T01:02:10.018Z,15.22
2022-09-25T01:07:12.265Z,15.25
2022-09-25T01:12:13.523Z,15.29
2022-09-25T01:17:24.646Z,15.29
2022-09-25T01:23:03.159Z,15.32
2022-09-25T01:28:44.588Z,15.27
2022-09-25T01:33:52.192Z,15.26
2022-09-25T01:38:58.530Z,15.33
2022-09-25T01:44:08.081Z,15.36
2022-09-25T01:49:17.517Z,15.30
2022-09-25T01:54:26.797Z,15.33
2022-09-25T01:59:49.486Z,15.34
2022-09-25T02:05:02.399Z,15.41
2022-09-25T02:10:10.222Z,15.42
2022-09-25T02:15:34.761Z,15.50
2022-09-25T02:20:36.982Z,15.35
2022-09-25T02:25:42.707Z,15.33
2022-09-25T02:30:46.917Z,15.22
2022-09-25T02:35:48.558Z,15.18
2022-09-25T02:41:27.270Z,15.02
2022-09-25T02:47:00.854Z,14.97
2022-09-25T02:52:09.615Z,15.06
2022-09-25T02:57:19.314Z,15.05
2022-09-25T03:02:21.840Z,15.05
2022-09-25T03:07:23.663Z,15.07
2022-09-25T03:12:25.324Z,15.05
2022-09-25T03:17:27.486Z,15.03
2022-09-25T03:22:28.755Z,14.96
2022-09-25T03:27:29.987Z,15.00
2022-09-25T03:32:31.236Z,15.01
2022-09-25T03:37:32.504Z,15.05
2022-09-25T03:42:33.780Z,15.05
2022-09-25T03:47:35.037Z,14.99
2022-09-25T03:52:36.468Z,14.91
2022-09-25T03:57:39.058Z,14.84
2022-09-25T04:02:40.383Z,15.03
2022-09-25T04:07:41.781Z,14.83
2022-09-25T04:12:43.482Z,14.77
2022-09-25T04:17:45.177Z,14.60
2022-09-25T04:22:46.533Z,14.77
2022-09-25T04:27:49.747Z,14.88
2022-09-25T04:33:10.195Z,14.84
2022-09-25T04:38:11.511Z,14.84
2022-09-25T04:43:12.816Z,14.85
2022-09-25T04:48:14.050Z,14.76
2022-09-25T04:53:16.267Z,14.82
2022-09-25T04:58:17.530Z,14.77
2022-09-25T05:03:18.881Z,14.82
2022-09-25T05:08:20.149Z,14.76
2022-09-25T05:13:21.589Z,14.76
2022-09-25T05:18:23.987Z,14.80
2022-09-25T05:23:25.266Z,14.76
2022-09-25T05:28:26.514Z,14.72
2022-09-25T05:33:28.165Z,14.84
2022-09-25T05:38:32.016Z,14.77
2022-09-25T05:43:34.727Z,14.79
2022-09-25T05:48:36.458Z,14.85
2022-09-25T05:53:38.140Z,14.77
2022-09-25T05:58:39.425Z,14.67
2022-09-25T06:03:41.739Z,14.76
2022-09-25T06:08:43.121Z,14.75
2022-09-25T06:13:49.536Z,14.75
2022-09-25T06:18:53.258Z,14.66
2022-09-25T06:23:55.195Z,14.71
2022-09-25T06:29:02.337Z,14.77
2022-09-25T06:34:05.683Z,14.77
2022-09-25T06:39:07.004Z,14.80
2022-09-25T06:44:09.268Z,14.81
2022-09-25T06:49:13.077Z,14.73
2022-09-25T06:54:14.389Z,14.79
2022-09-25T06:59:16.655Z,14.84
2022-09-25T07:04:18.471Z,14.78
2022-09-25T07:09:19.732Z,14.79
2022-09-25T07:14:21.799Z,14.84
2022-09-25T07:19:27.558Z,14.85
2022-09-25T07:24:29.988Z,14.94
2022-09-25T07:29:31.526Z,15.01
2022-09-25T07:34:35.066Z,15.08
2022-09-25T07:39:36.600Z,15.16
2022-09-25T07:44:41.521Z,15.13
2022-09-25T07:49:45.315Z,15.13
2022-09-25T07:54:46.554Z,15.07
2022-09-25T07:59:47.807Z,15.07
2022-09-25T08:04:49.039Z,15.00
2022-09-25T08:09:50.310Z,14.97
2022-09-25T08:14:52.625Z,15.08
2022-09-25T08:19:53.881Z,15.06
2022-09-25T08:24:55.302Z,15.12
2022-09-25T08:29:56.978Z,15.17
2022-09-25T08:34:58.240Z,15.18
2022-09-25T08:40:00.674Z,15.23
2022-09-25T08:45:24.730Z,15.36
2022-09-25T08:50:27.027Z,15.39
2022-09-25T08:55:50.085Z,15.49
2022-09-25T09:00:58.823Z,15.54
2022-09-25T09:06:11.881Z,15.54
2022-09-25T09:11:19.706Z,15.52
2022-09-25T09:16:30.580Z,15.48
2022-09-25T09:22:09.126Z,15.50
2022-09-25T09:27:28.698Z,15.51
2022-09-25T09:33:04.294Z,15.45
2022-09-25T09:38:20.974Z,15.43
2022-09-25T09:43:54.926Z,15.48
2022-09-25T09:49:10.562Z,15.45
2022-09-25T09:54:31.975Z,15.70
2022-09-25T09:59:49.099Z,15.96
2022-09-25T10:04:52.908Z,16.48
2022-09-25T10:09:54.726Z,16.63
2022-09-25T10:14:58.580Z,17.08
2022-09-25T10:20:04.323Z,17.22
2022-09-25T10:25:06.778Z,17.13
2022-09-25T10:30:10.979Z,16.82
2022-09-25T10:35:18.915Z,16.59
2022-09-25T10:40:27.013Z,16.88
2022-09-25T10:45:34.260Z,16.81
2022-09-25T10:50:38.370Z,16.35
2022-09-25T10:55:46.169Z,16.34
2022-09-25T11:00:51.282Z,16.13
2022-09-25T11:05:55.574Z,16.29
2022-09-25T11:10:58.861Z,16.07
2022-09-25T11:16:01.698Z,16.11
2022-09-25T11:21:05.619Z,16.22
2022-09-25T11:26:12.469Z,16.28
2022-09-25T11:31:30.233Z,16.34
2022-09-25T11:36:46.411Z,16.56
2022-09-25T11:41:57.920Z,16.47
2022-09-25T11:47:33.822Z,16.79
2022-09-25T11:53:09.931Z,16.68
2022-09-25T11:58:15.658Z,16.34
2022-09-25T12:03:54.370Z,16.29
2022-09-25T12:08:57.090Z,16.26
2022-09-25T12:14:10.318Z,16.46
2022-09-25T12:19:36.633Z,16.68
2022-09-25T12:25:00.610Z,16.34
2022-09-25T12:30:23.812Z,16.38
2022-09-25T12:35:38.273Z,16.19
2022-09-25T12:41:08.112Z,15.93
2022-09-25T12:46:37.617Z,15.83
2022-09-25T12:51:43.306Z,15.78
2022-09-25T12:56:59.633Z,15.87
2022-09-25T13:02:16.258Z,15.99
2022-09-25T13:07:51.765Z,16.22
2022-09-25T13:12:56.714Z,16.52
2022-09-25T13:17:59.189Z,16.71
2022-09-25T13:23:14.840Z,16.72
2022-09-25T13:28:23.460Z,16.57
2022-09-25T13:33:25.354Z,16.48
2022-09-25T13:38:45.789Z,16.32
2022-09-25T13:43:49.939Z,15.91
2022-09-25T13:48:52.544Z,15.88
2022-09-25T13:54:00.155Z,15.84
2022-09-25T13:59:20.855Z,15.72
2022-09-25T14:04:22.246Z,15.79
2022-09-25T14:09:28.138Z,15.68
2022-09-25T14:14:38.876Z,15.72
2022-09-25T14:19:43.809Z,15.34
2022-09-25T14:24:45.476Z,15.38
2022-09-25T14:29:46.985Z,15.49
2022-09-25T14:35:04.931Z,15.27
2022-09-25T14:40:28.248Z,15.18
2022-09-25T14:45:39.026Z,15.28
2022-09-25T14:50:47.221Z,15.10
2022-09-25T14:55:53.033Z,15.27
2022-09-25T15:01:13.624Z,15.36
2022-09-25T15:06:29.602Z,15.33
2022-09-25T15:11:43.023Z,15.22
2022-09-25T15:17:02.834Z,15.14
2022-09-25T15:22:20.258Z,15.30
2022-09-25T15:27:22.644Z,15.29
2022-09-25T15:32:29.877Z,15.35
2022-09-25T15:37:31.161Z,15.38
2022-09-25T15:42:32.897Z,15.08
2022-09-25T15:47:34.256Z,15.20
2022-09-25T15:52:35.776Z,15.27
2022-09-25T15:57:37.324Z,15.31
2022-09-25T16:03:12.557Z,15.34
2022-09-25T16:08:36.390Z,15.39
2022-09-25T16:13:41.475Z,15.31
2022-09-25T16:18:42.758Z,15.24
2022-09-25T16:23:55.789Z,15.31
2022-09-25T16:29:19.047Z,15.33
2022-09-25T16:34:30.977Z,15.34
2022-09-25T16:39:35.991Z,15.26
2022-09-25T16:44:42.110Z,15.25
2022-09-25T16:49:44.653Z,15.26
2022-09-25T16:54:54.635Z,15.21
2022-09-25T16:59:55.978Z,14.98
2022-09-25T17:04:57.397Z,14.89
2022-09-25T17:10:00.848Z,14.72
2022-09-25T17:15:02.178Z,14.85
2022-09-25T17:20:03.789Z,14.99
2022-09-25T17:25:21.878Z,14.87
2022-09-25T17:30:23.142Z,14.94
2022-09-25T17:35:35.211Z,14.90
2022-09-25T17:40:36.753Z,14.84
2022-09-25T17:45:56.134Z,14.88
2022-09-25T17:51:03.719Z,14.91
2022-09-25T17:56:05.089Z,15.03
2022-09-25T18:01:14.419Z,15.05
2022-09-25T18:06:15.711Z,15.03
2022-09-25T18:11:17.848Z,15.05
2022-09-25T18:16:23.100Z,15.09
2022-09-25T18:21:43.366Z,15.05
2022-09-25T18:26:45.410Z,15.09
2022-09-25T18:31:47.472Z,15.05
2022-09-25T18:36:51.962Z,15.02
2022-09-25T18:41:53.408Z,14.96
2022-09-25T18:46:55.588Z,14.99
2022-09-25T18:51:57.056Z,15.00
2022-09-25T18:56:58.808Z,14.99
2022-09-25T19:02:00.257Z,14.93
2022-09-25T19:07:01.652Z,14.99
2022-09-25T19:12:03.843Z,15.02
2022-09-25T19:17:05.310Z,14.98
2022-09-25T19:22:08.314Z,15.01
2022-09-25T19:27:11.102Z,15.00
2022-09-25T19:32:14.728Z,14.96
2022-09-25T19:37:15.977Z,14.85
2022-09-25T19:42:17.326Z,14.78
2022-09-25T19:47:18.889Z,14.73
2022-09-25T19:52:22.239Z,14.67
2022-09-25T19:57:23.561Z,14.56
2022-09-25T20:02:24.859Z,14.57
2022-09-25T20:07:26.122Z,14.57
2022-09-25T20:12:27.484Z,14.60
2022-09-25T20:17:28.810Z,14.55
2022-09-25T20:22:31.450Z,14.55
2022-09-25T20:27:32.715Z,14.43
2022-09-25T20:32:35.072Z,14.38
2022-09-25T20:37:36.559Z,14.28
2022-09-25T20:42:37.838Z,14.24
2022-09-25T20:47:45.893Z,14.11
2022-09-25T20:52:47.551Z,14.18
2022-09-25T20:57:48.794Z,14.12
2022-09-25T21:02:50.194Z,14.05
2022-09-25T21:07:51.635Z,13.96
2022-09-25T21:12:52.945Z,14.02
2022-09-25T21:17:54.579Z,13.97
2022-09-25T21:22:55.939Z,13.83
2022-09-25T21:27:57.416Z,13.81
2022-09-25T21:32:58.927Z,13.70
2022-09-25T21:38:00.209Z,13.66
2022-09-25T21:43:01.475Z,13.62
2022-09-25T21:48:02.719Z,13.61
2022-09-25T21:53:04.294Z,13.55
2022-09-25T21:58:05.524Z,13.54
2022-09-25T22:03:09.168Z,13.49
2022-09-25T22:08:10.726Z,13.43
2022-09-25T22:13:12.015Z,13.38
2022-09-25T22:18:13.285Z,13.31
2022-09-25T22:23:14.530Z,12.96
2022-09-25T22:28:15.841Z,12.86
2022-09-25T22:33:17.133Z,12.93
2022-09-25T22:38:18.382Z,12.87
2022-09-25T22:43:19.678Z,12.86
2022-09-25T22:48:22.157Z,12.73
2022-09-25T22:53:24.667Z,12.69
2022-09-25T22:58:26.589Z,12.57
2022-09-25T23:03:28.702Z,12.49
2022-09-25T23:08:30.672Z,12.50
2022-09-25T23:13:33.118Z,12.48
2022-09-25T23:18:36.213Z,12.51
2022-09-25T23:23:37.924Z,12.50
2022-09-25T23:28:40.833Z,12.48
2022-09-25T23:33:43.348Z,12.52
2022-09-25T23:38:45.383Z,12.57
2022-09-25T23:43:48.362Z,12.59
2022-09-25T23:48:49.933Z,12.59
2022-09-25T23:53:51.905Z,12.58
2022-09-25T23:58:55.118Z,12.51
